Weather - Helsinki Query any day in the database

Current weather  

Weather data for a selected day (2006-01-01 -2020-10-30)
Enter date:     <-     scroll days         ->
day curves
Low temperature°C -2.001:00
High temperature°C +4.214:30
Low wind chill°C -6.200:00
Average temperature°C +2.3 
High wind speed (10 min) m/s 13.611:30
Low pressurehPa 995.617:00
High pressurehPa 1013.100:00
Low R.H% 9019:30
High R.H% 9713:00
High precipitation (1h)mm 1.711:00
Total precipitation of the daymm 8.8 
Day weather data as a table
Date Time Temp
°C
Chill
°C
Pressure
hPA
Wind
m/s
Hum
%
Precip
mm
2016-12-24 23:30:00 2.7  -1.7  996.1 5.3 95 -
2016-12-24 23:00:00 2.7  -1.3  996.3 4.6 93 -
2016-12-24 22:30:00 2.6  -1.6  996.3 4.9 92 -
2016-12-24 22:00:00 2.4  -2.3  996.2 5.7 92 -
2016-12-24 21:30:00 1.9  -2.9  996.1 5.6 93 -
2016-12-24 21:00:00 1.8  -2.7  996.1 5.1 93 -
2016-12-24 20:30:00 2.1  -2.6  996.0 5.5 92 -
2016-12-24 20:00:00 2.5  -2.4  995.8 6.3 91 -
2016-12-24 19:30:00 2.9  -2.0  995.7 6.6 90 -
2016-12-24 19:00:00 3.3  -1.4  995.8 6.3 91 -
2016-12-24 18:30:00 3.6  -1.2  995.8 6.8 92 -
2016-12-24 18:00:00 3.6  -1.3  995.8 7.0 93 0.1
2016-12-24 17:30:00 3.7  -1.6  995.7 8.1 94 -
2016-12-24 17:00:00 3.8  -1.4  995.6 8.1 94 0.4
2016-12-24 16:30:00 3.9  -1.1  995.8 7.6 95 -
2016-12-24 16:00:00 4.0  -1.7  995.6 9.8 94 0.9
2016-12-24 15:30:00 3.9  -1.5  995.8 8.6 94 -
2016-12-24 15:00:00 4.1  -1.7  995.8 10.2 94 0.4
2016-12-24 14:30:00 4.2  -1.4  995.9 9.8 95 -
2016-12-24 14:00:00 4.1  -1.7  996.1 10.4 95 0.9
2016-12-24 13:30:00 3.9  -2.4  996.3 12.1 95 -
2016-12-24 13:00:00 3.5  -2.7  996.7 11.2 97 1.2
2016-12-24 12:30:00 3.1  -3.5  997.2 12.2 96 -
2016-12-24 12:00:00 3.0  -3.6  997.9 12.1 96 1.6
2016-12-24 11:30:00 2.9  -4.1  998.6 13.6 96 -
2016-12-24 11:00:00 3.0  -3.9  999.2 13.2 96 1.7
2016-12-24 10:30:00 3.0  -3.6  1000.0 11.9 96 -
2016-12-24 10:00:00 3.1  -3.5  1000.9 12.0 95 1.1
2016-12-24 09:30:00 3.1  -3.1  1001.7 10.4 95 -
2016-12-24 09:00:00 2.9  -3.0  1002.5 9.3 95 0.5
2016-12-24 08:30:00 3.1  -2.7  1003.3 9.2 93 -
2016-12-24 08:00:00 2.9  -2.9  1004.2 9.1 93 -
2016-12-24 07:30:00 3.0  -2.8  1005.0 9.0 93 -
2016-12-24 07:00:00 2.7  -2.8  1005.7 7.8 94 -
2016-12-24 06:30:00 2.9  -3.0  1006.7 9.2 93 -
2016-12-24 06:00:00 2.8  -3.0  1007.4 8.9 92 -
2016-12-24 05:30:00 2.7  -2.4  1007.9 6.9 92 -
2016-12-24 05:00:00 2.3  -2.4  1008.6 5.6 91 -
2016-12-24 04:30:00 1.9  -2.9  1009.2 5.7 92 -
2016-12-24 04:00:00 1.4  -3.4  1009.9 5.5 94 -
2016-12-24 03:30:00 0.9  -4.0  1010.5 5.3 97 -
2016-12-24 03:00:00 -1.0  -5.5  1010.9 3.9 97 -
2016-12-24 02:30:00 -1.5  -5.3  1011.4 3.0 96 -
2016-12-24 02:00:00 -1.1  -5.4  1011.8 3.6 97 -
2016-12-24 01:30:00 -1.8  -5.5  1012.1 2.8 97 -
2016-12-24 01:00:00 -2.0  -5.8  1012.5 2.9 96 -
2016-12-24 00:30:00 -1.4  -5.6  1012.9 3.4 96 -
2016-12-24 00:00:00 -1.2  -6.2  1013.1 4.6 96 -
Unit conversions: